Asau, Samoa

5:06 AM WST on August 31, 2014 (GMT +1300)
Faleolo International | Change Station
CLOSE
Current Station
Airport
Location: Faleolo,
Elevation: 16 ft
Nearby Weather Stations

Elev 16 ft 13.83 °S, 172.01 °W | Updated 1 hour ago

Mostly Cloudy
Mostly Cloudy
77 °F
Feels Like 77 °F
N
5
Wind Variable Wind from SE

Today
High -- | Low -- °F
--% Chance of Precip.
Yesterday
High -- | Low -- °F
Precip. -- in
6:35 AM 6:26 PM
Waxing Crescent, 23% visible
Pressure 29.86 in
Visibility 6.2 miles
Clouds Few 2000 ft
Mostly Cloudy 12000 ft
Dew Point 70 °F
Humidity 78%
Rainfall 0.00 in
Snow Depth Not available.
UV 0 out of 12
Pollen Not available.
Air Quality Not available.
Flu Activity Not available.
METAR NSFA 301500Z 14004KT 9999 FEW020 BKN120 25/21 Q1011

More Conditions Fewer Conditions

Pressure 29.86 in
Visibility 6.2 miles
Clouds Few 2000 ft
Mostly Cloudy 12000 ft
Dew Point 70 °F
Humidity 78%
Rainfall 0.00 in
Snow Depth Not available.
UV 0 out of 12
Pollen Not available.
Air Quality Not available.
Flu Activity Not available.
METAR NSFA 301500Z 14004KT 9999 FEW020 BKN120 25/21 Q1011

More Conditions Fewer Conditions

10-Day Weather Forecast

Almanac

Astronomy

Aug. 31, 2014 Rise Set
Actual Time 6:35 AM WST 6:26 PM WST
Civil Twilight 6:14 AM WST 6:47 PM WST
Nautical Twilight 5:49 AM WST 7:12 PM WST
Astronomical Twilight 5:24 AM WST 7:37 PM WST
Moon 10:01 AM WST (8/31) 10:50 PM WST (8/31)
Length of Visible Light 12h 33m
Length of Day
11h 50m
Tomorrow will be 0m 42s longer.
Waxing Crescent, 23% of the Moon is Illuminated
Aug 30
Waxing Crescent
Sep 2
First Quarter
Sep 8
Full
Sep 15
Last Quarter
Sep 24
New

Yesterday's Extremes

Country Highs Country Lows

Community

WunderPhotos

Upload Photos

1,748,555 photos uploaded!

WunderBlogs® & News

Nearby

Snow Depth

Not available.

Earthquake Activity

City Distance Mag. Time & Date
No recent earthquake activity has been reported nearby.
Minimum magnitude displayed is 2.5.

Coastal Water Temperatures

Place Temperature
No Stations Reporting

Nearby Weather Stations